createdAt,value
2018-06-24T00:01:56.462Z,12.80
2018-06-24T00:04:24.878Z,12.80
2018-06-24T00:06:53.124Z,12.80
2018-06-24T00:09:21.344Z,12.80
2018-06-24T00:11:49.603Z,12.70
2018-06-24T00:14:17.935Z,12.70
2018-06-24T00:16:46.125Z,12.70
2018-06-24T00:19:14.383Z,12.70
2018-06-24T00:21:42.979Z,12.70
2018-06-24T00:24:11.226Z,12.70
2018-06-24T00:26:39.503Z,12.70
2018-06-24T00:29:07.746Z,12.70
2018-06-24T00:31:36.178Z,12.70
2018-06-24T00:34:04.423Z,12.70
2018-06-24T00:36:32.828Z,12.70
2018-06-24T00:39:01.040Z,12.60
2018-06-24T00:41:29.243Z,12.70
2018-06-24T00:44:03.660Z,12.60
2018-06-24T00:46:31.917Z,12.60
2018-06-24T00:49:00.135Z,12.60
2018-06-24T00:51:28.550Z,12.60
2018-06-24T00:53:56.953Z,12.60
2018-06-24T00:56:25.194Z,12.60
2018-06-24T00:58:53.476Z,12.60
2018-06-24T01:01:21.717Z,12.60
2018-06-24T01:03:50.007Z,12.60
2018-06-24T01:06:18.720Z,12.50
2018-06-24T01:08:47.032Z,12.50
2018-06-24T01:13:43.439Z,12.50
2018-06-24T01:16:11.692Z,12.50
2018-06-24T01:18:39.972Z,12.50
2018-06-24T01:21:08.186Z,12.50
2018-06-24T01:23:36.428Z,12.50
2018-06-24T01:26:04.745Z,12.50
2018-06-24T01:28:33.000Z,12.40
2018-06-24T01:31:01.263Z,12.40
2018-06-24T01:33:29.664Z,12.40
2018-06-24T01:35:57.916Z,12.40
2018-06-24T01:38:26.298Z,12.40
2018-06-24T01:40:54.523Z,12.40
2018-06-24T01:45:50.858Z,12.40
2018-06-24T01:48:19.091Z,12.40
2018-06-24T01:50:47.338Z,12.40
2018-06-24T01:53:15.746Z,12.40
2018-06-24T01:55:43.986Z,12.40
2018-06-24T02:00:40.299Z,12.40
2018-06-24T02:03:08.621Z,12.40
2018-06-24T02:08:05.098Z,12.30
2018-06-24T02:10:33.481Z,12.30
2018-06-24T02:13:01.720Z,12.30
2018-06-24T02:15:30.052Z,12.30
2018-06-24T02:17:58.348Z,12.30
2018-06-24T02:20:26.595Z,12.30
2018-06-24T02:23:00.060Z,12.30
2018-06-24T02:25:28.303Z,12.30
2018-06-24T02:27:56.553Z,12.30
2018-06-24T02:30:24.947Z,12.30
2018-06-24T02:32:53.307Z,12.30
2018-06-24T02:35:21.527Z,12.30
2018-06-24T02:37:49.801Z,12.30
2018-06-24T02:40:18.053Z,12.30
2018-06-24T02:42:46.304Z,12.30
2018-06-24T02:45:14.715Z,12.30
2018-06-24T02:47:43.095Z,12.30
2018-06-24T02:50:11.403Z,12.20
2018-06-24T02:52:39.650Z,12.20
2018-06-24T02:55:07.896Z,12.20
2018-06-24T02:57:36.176Z,12.20
2018-06-24T03:00:04.609Z,12.20
2018-06-24T03:02:32.836Z,12.20
2018-06-24T03:05:01.328Z,12.20
2018-06-24T03:07:29.551Z,12.20
2018-06-24T03:09:57.831Z,12.20
2018-06-24T03:12:26.063Z,12.10
2018-06-24T03:14:54.429Z,12.10
2018-06-24T03:17:22.732Z,12.10
2018-06-24T03:19:51.026Z,12.10
2018-06-24T03:22:19.311Z,12.10
2018-06-24T03:24:47.651Z,12.10
2018-06-24T03:27:15.886Z,12.10
2018-06-24T03:29:44.201Z,12.10
2018-06-24T03:32:12.412Z,12.10
2018-06-24T03:34:40.689Z,12.10
2018-06-24T03:37:08.975Z,12.10
2018-06-24T03:39:37.193Z,12.10
2018-06-24T03:42:05.672Z,12.10
2018-06-24T03:44:34.057Z,12.10
2018-06-24T03:47:02.305Z,12.10
2018-06-24T03:49:30.737Z,12.10
2018-06-24T03:51:58.999Z,12.10
2018-06-24T03:57:35.428Z,12.10
2018-06-24T04:00:03.788Z,12.10
2018-06-24T04:02:32.050Z,12.20
2018-06-24T04:05:00.811Z,12.20
2018-06-24T04:07:29.465Z,12.20
2018-06-24T04:09:57.708Z,12.20
2018-06-24T04:12:25.953Z,12.30
2018-06-24T04:14:54.183Z,12.30
2018-06-24T04:17:33.306Z,12.30
2018-06-24T04:20:01.708Z,12.30
2018-06-24T04:22:30.025Z,12.30
2018-06-24T04:24:58.243Z,12.30
2018-06-24T04:29:54.425Z,12.40
2018-06-24T04:32:23.040Z,12.40
2018-06-24T04:34:51.259Z,12.40
2018-06-24T04:37:19.504Z,12.40
2018-06-24T04:39:47.771Z,12.40
2018-06-24T04:42:16.071Z,12.40
2018-06-24T04:45:01.697Z,12.50
2018-06-24T04:47:30.698Z,12.50
2018-06-24T04:49:59.041Z,12.50
2018-06-24T04:52:27.368Z,12.60
2018-06-24T04:54:55.732Z,12.60
2018-06-24T04:57:25.623Z,12.70
2018-06-24T04:59:56.918Z,12.70
2018-06-24T05:02:30.832Z,12.80
2018-06-24T05:05:05.176Z,12.80
2018-06-24T05:07:44.432Z,12.90
2018-06-24T05:10:14.230Z,12.90
2018-06-24T05:12:47.509Z,13.00
2018-06-24T05:15:24.724Z,13.00
2018-06-24T05:17:54.419Z,13.10
2018-06-24T05:20:23.536Z,13.20
2018-06-24T05:22:53.985Z,13.20
2018-06-24T05:31:04.432Z,13.40
2018-06-24T05:33:33.971Z,13.40
2018-06-24T05:36:03.536Z,13.50
2018-06-24T05:38:47.133Z,13.50
2018-06-24T05:41:37.587Z,13.50
2018-06-24T05:48:40.886Z,13.60
2018-06-24T05:51:13.340Z,13.80
2018-06-24T05:54:04.693Z,13.80
2018-06-24T05:56:34.585Z,13.90
2018-06-24T05:59:06.452Z,14.00
2018-06-24T06:01:39.005Z,14.00
2018-06-24T06:12:37.306Z,14.30
2018-06-24T06:27:21.640Z,14.60
2018-06-24T06:29:53.637Z,14.80
2018-06-24T07:26:03.410Z,16.10
2018-06-24T07:28:47.034Z,16.10
2018-06-24T07:36:59.284Z,16.40
2018-06-24T07:39:28.750Z,16.50
2018-06-24T07:57:52.124Z,16.60
2018-06-24T08:00:29.217Z,16.70
2018-06-24T08:03:05.067Z,16.70
2018-06-24T08:05:44.342Z,16.70
2018-06-24T08:08:24.264Z,16.80
2018-06-24T08:10:59.127Z,16.80
2018-06-24T08:16:23.469Z,16.80
2018-06-24T08:48:58.471Z,16.50
2018-06-24T09:15:38.159Z,16.80
2018-06-24T09:27:12.588Z,16.80
2018-06-24T09:59:31.484Z,18.10
2018-06-24T10:08:07.981Z,18.30
2018-06-24T10:22:22.851Z,18.40
2018-06-24T13:41:48.646Z,20.20
2018-06-24T13:50:40.317Z,20.10
2018-06-24T13:53:45.839Z,20.20
2018-06-24T13:56:24.293Z,20.20
2018-06-24T14:16:14.226Z,19.80
2018-06-24T14:18:43.271Z,19.80
2018-06-24T14:21:17.360Z,19.70
2018-06-24T14:29:30.517Z,19.60
2018-06-24T14:32:03.445Z,19.60
2018-06-24T14:34:37.917Z,19.60
2018-06-24T14:37:35.776Z,19.70
2018-06-24T14:40:11.125Z,19.70
2018-06-24T14:42:39.474Z,19.70
2018-06-24T14:45:08.111Z,19.60
2018-06-24T14:47:36.425Z,19.60
2018-06-24T14:50:05.055Z,19.60
2018-06-24T14:52:33.503Z,19.50
2018-06-24T14:55:01.973Z,19.40
2018-06-24T15:09:02.880Z,19.10
2018-06-24T15:13:59.225Z,19.10
2018-06-24T15:16:27.779Z,19.00
2018-06-24T15:18:56.073Z,19.00
2018-06-24T15:21:24.567Z,19.00
2018-06-24T15:23:52.855Z,19.00
2018-06-24T15:26:21.093Z,18.90
2018-06-24T15:28:49.601Z,18.90
2018-06-24T15:31:17.848Z,18.90
2018-06-24T15:33:46.105Z,18.80
2018-06-24T15:36:14.436Z,18.70
2018-06-24T15:38:42.861Z,18.70
2018-06-24T15:41:11.177Z,18.60
2018-06-24T15:43:39.516Z,18.60
2018-06-24T15:46:07.924Z,18.60
2018-06-24T15:48:36.521Z,18.60
2018-06-24T15:51:05.020Z,18.50
2018-06-24T15:53:33.336Z,18.50
2018-06-24T15:56:01.906Z,18.40
2018-06-24T15:58:30.235Z,18.40
2018-06-24T16:00:58.582Z,18.30
2018-06-24T16:03:28.117Z,18.30
2018-06-24T16:05:56.469Z,18.20
2018-06-24T16:14:27.377Z,18.10
2018-06-24T16:16:55.794Z,18.00
2018-06-24T16:19:24.981Z,17.90
2018-06-24T16:21:53.472Z,17.80
2018-06-24T16:24:21.736Z,17.80
2018-06-24T16:26:56.320Z,17.80
2018-06-24T16:29:24.589Z,17.80
2018-06-24T16:31:53.168Z,17.80
2018-06-24T16:34:21.480Z,17.80
2018-06-24T16:36:49.720Z,17.80
2018-06-24T16:39:17.971Z,17.80
2018-06-24T16:41:46.392Z,17.70
2018-06-24T16:44:14.838Z,17.70
2018-06-24T16:52:29.853Z,17.70
2018-06-24T16:58:00.489Z,17.60
2018-06-24T17:00:28.912Z,17.60
2018-06-24T17:02:57.440Z,17.60
2018-06-24T17:05:25.821Z,17.50
2018-06-24T17:07:54.195Z,17.40
2018-06-24T17:10:22.547Z,17.30
2018-06-24T17:12:53.276Z,17.20
2018-06-24T17:15:21.564Z,17.10
2018-06-24T17:17:50.124Z,17.10
2018-06-24T17:20:19.156Z,17.10
2018-06-24T17:22:47.571Z,17.20
2018-06-24T17:25:16.223Z,17.20
2018-06-24T17:27:44.724Z,17.20
2018-06-24T17:30:13.035Z,17.30
2018-06-24T17:32:41.503Z,17.30
2018-06-24T17:35:10.042Z,17.20
2018-06-24T17:37:38.433Z,17.20
2018-06-24T17:40:06.788Z,17.20
2018-06-24T17:42:35.252Z,17.20
2018-06-24T17:45:03.537Z,17.20
2018-06-24T17:47:32.062Z,17.10
2018-06-24T17:50:01.141Z,17.10
2018-06-24T17:52:30.711Z,17.00
2018-06-24T17:54:59.342Z,17.00
2018-06-24T17:57:27.791Z,17.00
2018-06-24T17:59:56.421Z,17.00
2018-06-24T18:02:24.976Z,17.00
2018-06-24T18:04:53.736Z,16.90
2018-06-24T18:07:31.927Z,16.90
2018-06-24T18:10:00.601Z,16.90
2018-06-24T18:12:29.123Z,16.90
2018-06-24T18:14:57.802Z,16.90
2018-06-24T18:17:26.228Z,16.90
2018-06-24T18:19:54.667Z,16.90
2018-06-24T18:22:23.222Z,16.80
2018-06-24T18:24:51.715Z,16.80
2018-06-24T18:44:24.017Z,16.40
2018-06-24T18:46:52.334Z,16.30
2018-06-24T18:49:20.605Z,16.30
2018-06-24T18:51:49.111Z,16.30
2018-06-24T18:54:17.812Z,16.30
2018-06-24T18:56:46.180Z,16.20
2018-06-24T18:59:14.803Z,16.10
2018-06-24T19:01:43.239Z,16.10
2018-06-24T19:04:11.619Z,16.10
2018-06-24T19:06:56.709Z,16.10
2018-06-24T19:09:25.118Z,16.10
2018-06-24T19:11:53.875Z,16.10
2018-06-24T19:14:22.226Z,16.10
2018-06-24T19:16:50.564Z,16.10
2018-06-24T19:19:18.945Z,16.00
2018-06-24T19:21:47.377Z,15.90
2018-06-24T19:32:48.178Z,15.90
2018-06-24T19:35:16.430Z,15.90
2018-06-24T19:37:44.774Z,15.90
2018-06-24T19:40:13.197Z,15.90
2018-06-24T19:42:41.820Z,15.80
2018-06-24T19:45:10.112Z,15.80
2018-06-24T19:47:38.607Z,15.80
2018-06-24T19:50:07.504Z,15.80
2018-06-24T19:52:35.947Z,15.80
2018-06-24T19:55:04.164Z,15.80
2018-06-24T19:57:32.469Z,15.80
2018-06-24T20:00:00.801Z,15.80
2018-06-24T20:02:29.121Z,15.80
2018-06-24T20:04:57.695Z,15.70
2018-06-24T20:07:31.700Z,15.70
2018-06-24T20:10:00.074Z,15.70
2018-06-24T20:12:28.565Z,15.70
2018-06-24T20:14:56.993Z,15.60
2018-06-24T20:17:25.987Z,15.60
2018-06-24T20:19:54.471Z,15.60
2018-06-24T20:25:15.447Z,15.60
2018-06-24T20:27:43.903Z,15.60
2018-06-24T20:30:12.476Z,15.60
2018-06-24T20:32:40.914Z,15.60
2018-06-24T20:35:09.419Z,15.50
2018-06-24T20:37:37.836Z,15.50
2018-06-24T20:40:06.287Z,15.50
2018-06-24T20:42:34.753Z,15.50
2018-06-24T20:45:16.280Z,15.50
2018-06-24T20:47:44.663Z,15.50
2018-06-24T20:50:13.365Z,15.50
2018-06-24T20:52:41.700Z,15.50
2018-06-24T20:55:10.129Z,15.50
2018-06-24T20:57:38.628Z,15.50
2018-06-24T21:00:07.477Z,15.50
2018-06-24T21:02:36.154Z,15.50
2018-06-24T21:05:09.904Z,15.50
2018-06-24T21:07:38.852Z,15.50
2018-06-24T21:10:07.500Z,15.50
2018-06-24T21:12:36.181Z,15.40
2018-06-24T21:15:06.097Z,15.40
2018-06-24T21:17:34.460Z,15.40
2018-06-24T21:20:02.819Z,15.30
2018-06-24T21:22:31.239Z,15.30
2018-06-24T21:24:59.685Z,15.30
2018-06-24T21:27:28.095Z,15.20
2018-06-24T21:29:56.600Z,15.20
2018-06-24T21:32:24.946Z,15.20
2018-06-24T21:38:01.584Z,15.20
2018-06-24T21:40:29.984Z,15.10
2018-06-24T21:42:58.386Z,15.10
2018-06-24T21:48:00.830Z,15.00
2018-06-24T21:50:29.328Z,15.00
2018-06-24T21:53:05.773Z,15.00
2018-06-24T21:55:34.215Z,15.00
2018-06-24T21:58:04.136Z,15.00
2018-06-24T22:00:32.664Z,14.90
2018-06-24T22:03:01.103Z,14.90
2018-06-24T22:05:29.460Z,14.90
2018-06-24T22:07:57.911Z,14.90
2018-06-24T22:10:26.343Z,14.90
2018-06-24T22:12:59.722Z,14.90
2018-06-24T22:15:28.432Z,14.90
2018-06-24T22:17:57.143Z,14.90
2018-06-24T22:20:25.588Z,14.90
2018-06-24T22:22:54.059Z,14.90
2018-06-24T22:25:23.082Z,14.80
2018-06-24T22:27:51.540Z,14.80
2018-06-24T22:30:19.867Z,14.80
2018-06-24T22:32:48.328Z,14.70
2018-06-24T22:35:16.937Z,14.70
2018-06-24T22:37:45.383Z,14.60
2018-06-24T22:40:13.839Z,14.70
2018-06-24T22:42:42.422Z,14.70
2018-06-24T22:45:10.967Z,14.70
2018-06-24T22:47:39.333Z,14.70
2018-06-24T22:50:07.885Z,14.70
2018-06-24T22:52:36.299Z,14.70
2018-06-24T22:55:05.275Z,14.70
2018-06-24T22:57:33.936Z,14.60
2018-06-24T23:00:18.039Z,14.60
2018-06-24T23:03:06.470Z,14.60
2018-06-24T23:05:34.865Z,14.60
2018-06-24T23:08:03.367Z,14.60
2018-06-24T23:10:31.768Z,14.60
2018-06-24T23:13:00.264Z,14.60
2018-06-24T23:15:28.644Z,14.60
2018-06-24T23:17:57.087Z,14.60
2018-06-24T23:20:25.433Z,14.50
2018-06-24T23:22:53.788Z,14.50
2018-06-24T23:33:59.421Z,14.40
2018-06-24T23:36:27.887Z,14.40
2018-06-24T23:38:56.225Z,14.40
2018-06-24T23:41:24.584Z,14.30
2018-06-24T23:43:53.017Z,14.30
2018-06-24T23:46:21.544Z,14.30
2018-06-24T23:48:49.866Z,14.30
2018-06-24T23:51:29.684Z,14.30
2018-06-24T23:54:05.666Z,14.30
2018-06-24T23:56:34.111Z,14.30
2018-06-24T23:59:02.496Z,14.30
